Time;durP1;ratioP1;P1;durP2;ratioP2;P2;SDS_P1;SDS_P2;PMS_P1;PMS_P2;Temp;Humidity;BMP_temperature;BMP_pressure;BME280_temperature;BME280_humidity;BME280_pressure;Samples;Min_cycle;Max_cycle;Signal;HPM_P1;HPM_P2
2023/01/01 00:01:28;;;;;;;;;;;;;;;17.49;65.13;100745.72;5273599;28;20032;-77
2023/01/01 00:04:00;;;;;;;14.38;4.03;;;;;;;17.10;65.58;100737.91;5272187;28;19935;-77
2023/01/01 00:06:31;;;;;;;13.70;4.43;;;;;;;16.99;65.58;100736.47;5268174;28;20417;-77
2023/01/01 00:11:53;;;;;;;10.05;3.00;;;;;;;16.99;65.24;100744.41;5271262;28;20056;-76
2023/01/01 00:14:24;;;;;;;10.38;3.05;;;;;;;17.03;65.39;100737.78;5273796;28;20024;-77
2023/01/01 00:16:55;;;;;;;13.90;3.40;;;;;;;17.00;64.83;100755.81;5273437;28;20521;-77
2023/01/01 00:19:27;;;;;;;11.23;3.45;;;;;;;16.97;64.62;100740.28;5274600;28;20024;-76
2023/01/01 00:21:58;;;;;;;16.05;3.42;;;;;;;16.92;64.71;100742.63;5273232;28;20032;-77
2023/01/01 00:24:29;;;;;;;6.22;2.70;;;;;;;16.92;65.37;100758.53;5275489;28;20484;-77
2023/01/01 00:27:01;;;;;;;11.50;3.90;;;;;;;16.90;63.65;100760.53;5276470;28;20020;-77
2023/01/01 00:29:32;;;;;;;10.70;2.53;;;;;;;16.96;63.29;100752.69;5275838;28;20060;-77
2023/01/01 00:32:03;;;;;;;7.47;2.45;;;;;;;16.84;65.04;100737.41;5274264;28;20020;-76
2023/01/01 00:34:35;;;;;;;10.05;3.70;;;;;;;16.78;65.06;100763.56;5265599;28;20074;-76
2023/01/01 00:37:06;;;;;;;11.35;3.53;;;;;;;16.81;65.27;100766.84;5269298;28;20012;-77
2023/01/01 00:39:37;;;;;;;7.03;3.35;;;;;;;16.96;64.88;100749.22;5272991;28;20029;-76
2023/01/01 00:42:09;;;;;;;12.90;3.47;;;;;;;16.93;67.44;100755.72;5272623;28;20028;-77
2023/01/01 00:44:40;;;;;;;12.15;3.28;;;;;;;16.94;65.76;100754.72;5273439;28;20028;-76
2023/01/01 00:47:11;;;;;;;12.82;4.13;;;;;;;16.96;65.53;100752.69;5275249;28;20024;-76
2023/01/01 00:49:43;;;;;;;10.88;3.65;;;;;;;16.95;65.30;100743.13;5274229;28;20358;-76
2023/01/01 00:52:14;;;;;;;9.10;3.55;;;;;;;16.90;64.20;100736.72;5273733;28;20020;-76
2023/01/01 00:54:45;;;;;;;13.15;3.53;;;;;;;16.87;65.57;100734.41;5272969;28;20048;-76
2023/01/01 00:57:17;;;;;;;10.05;3.15;;;;;;;16.78;65.15;100747.69;5274750;28;20033;-77
2023/01/01 00:59:48;;;;;;;11.50;2.88;;;;;;;16.88;64.17;100757.22;5271877;28;20112;-76
2023/01/01 01:02:19;;;;;;;9.85;2.67;;;;;;;16.84;65.38;100750.63;5271652;28;20032;-76
2023/01/01 01:04:50;;;;;;;6.97;2.53;;;;;;;16.80;65.77;100765.19;5274267;28;20025;-76
2023/01/01 01:07:22;;;;;;;8.93;2.42;;;;;;;16.82;65.47;100763.19;5273062;28;20028;-77
2023/01/01 01:09:53;;;;;;;6.32;1.88;;;;;;;16.97;63.96;100766.75;5274624;28;20590;-77
2023/01/01 01:12:24;;;;;;;9.00;2.60;;;;;;;16.87;64.17;100768.81;5272235;28;20497;-77
2023/01/01 01:14:55;;;;;;;9.30;2.85;;;;;;;16.88;64.66;100751.94;5270114;28;20028;-76
2023/01/01 01:17:28;;;;;;;9.18;2.95;;;;;;;16.80;65.96;100755.44;5273137;28;20042;-76
2023/01/01 01:19:59;;;;;;;10.43;2.60;;;;;;;16.94;64.91;100761.81;5274925;28;20381;-77
2023/01/01 01:22:33;;;;;;;8.93;2.60;;;;;;;16.80;66.86;100747.50;5276357;28;20032;-75
2023/01/01 01:25:05;;;;;;;9.95;3.05;;;;;;;16.71;66.57;100759.09;5272733;28;20047;-74
2023/01/01 01:27:37;;;;;;;11.10;2.40;;;;;;;16.75;66.70;100774.47;5274931;28;20319;-75
2023/01/01 01:30:08;;;;;;;6.78;2.55;;;;;;;16.67;67.07;100766.56;5269550;28;20024;-75
2023/01/01 01:32:40;;;;;;;7.45;2.65;;;;;;;16.71;65.35;100777.63;5255777;28;20291;-75
2023/01/01 01:35:11;;;;;;;8.13;2.40;;;;;;;16.64;65.89;100784.59;5274906;28;20020;-75
2023/01/01 01:37:42;;;;;;;15.02;2.67;;;;;;;16.66;65.55;100783.41;5275426;28;20404;-75
2023/01/01 01:40:16;;;;;;;9.55;2.85;;;;;;;16.69;65.70;100796.28;5271966;28;20032;-75
2023/01/01 01:42:50;;;;;;;6.90;2.33;;;;;;;16.62;64.59;100779.44;5274271;28;20537;-75
2023/01/01 01:45:21;;;;;;;11.25;2.83;;;;;;;16.53;65.71;100762.78;5271938;28;20208;-75
2023/01/01 01:47:58;;;;;;;6.32;2.45;;;;;;;16.52;65.61;100776.19;5275202;28;20044;-75
2023/01/01 01:50:43;;;;;;;10.43;2.92;;;;;;;16.51;66.10;100793.84;5272140;28;20504;-75
2023/01/01 01:53:28;;;;;;;13.85;2.80;;;;;;;16.42;66.25;100792.25;5274631;28;20129;-74
2023/01/01 01:56:05;;;;;;;8.57;2.33;;;;;;;16.50;65.25;100794.88;5274812;28;20028;-75
2023/01/01 01:58:37;;;;;;;7.85;2.17;;;;;;;16.37;65.60;100817.56;5272647;28;20032;-75
2023/01/01 02:01:08;;;;;;;5.88;2.17;;;;;;;16.41;66.25;100808.28;5271071;28;20020;-75
2023/01/01 02:03:48;;;;;;;7.38;2.10;;;;;;;16.40;66.48;100801.34;5274331;28;20044;-75
2023/01/01 02:06:20;;;;;;;6.72;2.20;;;;;;;16.36;65.96;100815.88;5275211;28;20021;-75
2023/01/01 02:08:52;;;;;;;6.17;1.83;;;;;;;16.30;67.34;100826.16;5273182;28;20453;-74
2023/01/01 02:11:24;;;;;;;7.25;2.40;;;;;;;16.32;65.88;100818.03;5275020;28;20036;-74
2023/01/01 02:13:57;;;;;;;7.20;2.42;;;;;;;16.35;66.69;100814.25;5274792;28;20017;-74
2023/01/01 02:16:43;;;;;;;6.82;2.22;;;;;;;16.50;66.78;100816.03;5272530;28;20028;-74
2023/01/01 02:19:23;;;;;;;7.38;2.17;;;;;;;16.30;66.94;100828.78;5271544;28;20111;-74
2023/01/01 02:22:31;;;;;;;6.22;1.98;;;;;;;16.36;66.30;100821.16;5274641;28;20489;-74
2023/01/01 02:25:32;;;;;;;11.52;2.25;;;;;;;16.35;67.59;100830.09;5274168;28;20020;-74
2023/01/01 02:28:36;;;;;;;8.85;2.08;;;;;;;16.17;67.96;100817.06;5273527;28;20017;-74
2023/01/01 02:31:11;;;;;;;6.93;2.10;;;;;;;16.04;67.92;100817.59;5271887;28;20474;-74
2023/01/01 02:33:45;;;;;;;7.55;1.98;;;;;;;16.00;67.52;100811.81;5270232;28;20027;-75
2023/01/01 02:36:18;;;;;;;6.15;2.25;;;;;;;16.00;67.31;100824.19;5274142;28;20025;-75
2023/01/01 02:38:54;;;;;;;8.07;1.63;;;;;;;16.03;67.09;100826.53;5274727;28;20020;-76
2023/01/01 02:41:29;;;;;;;7.90;2.30;;;;;;;15.95;67.00;100821.25;5270875;28;20040;-76
2023/01/01 02:44:02;;;;;;;8.57;2.08;;;;;;;15.93;67.19;100821.38;5273838;28;20436;-74
2023/01/01 02:46:34;;;;;;;6.32;2.05;;;;;;;15.96;67.14;100799.94;5273592;28;20138;-76
2023/01/01 02:49:06;;;;;;;12.63;2.40;;;;;;;15.95;67.28;100808.03;5270648;28;20075;-76
2023/01/01 02:52:00;;;;;;;8.27;1.90;;;;;;;16.05;67.91;100829.81;5270639;28;20068;-75
2023/01/01 02:54:43;;;;;;;6.53;2.45;;;;;;;16.00;68.53;100821.56;5274644;28;20036;-74
2023/01/01 02:57:30;;;;;;;5.65;1.90;;;;;;;16.07;67.96;100838.41;5273702;28;20016;-74
2023/01/01 03:00:26;;;;;;;6.60;1.95;;;;;;;16.03;68.20;100832.63;5270696;28;20094;-74
2023/01/01 03:03:06;;;;;;;5.30;1.85;;;;;;;15.99;70.12;100833.13;5272998;28;20115;-75
2023/01/01 03:06:22;;;;;;;7.50;2.00;;;;;;;15.98;68.93;100840.19;5275293;28;20028;-74
2023/01/01 03:09:11;;;;;;;7.53;2.05;;;;;;;16.10;69.31;100851.28;5275671;28;20427;-75
2023/01/01 03:12:12;;;;;;;6.03;2.00;;;;;;;16.08;71.01;100850.63;5275063;28;20060;-75
2023/01/01 03:15:00;;;;;;;3.47;1.67;;;;;;;16.01;70.48;100833.78;5274787;28;20113;-75
2023/01/01 03:17:37;;;;;;;10.10;2.28;;;;;;;15.85;71.63;100865.47;5275847;28;20036;-75
2023/01/01 03:20:21;;;;;;;7.05;1.92;;;;;;;15.89;71.13;100850.94;5255972;28;20025;-75
2023/01/01 03:22:57;;;;;;;6.18;1.75;;;;;;;15.89;70.66;100851.78;5277793;28;20094;-74
2023/01/01 03:25:33;;;;;;;5.20;1.77;;;;;;;15.88;70.46;100850.13;5264454;28;20024;-74
2023/01/01 03:28:16;;;;;;;5.68;1.88;;;;;;;15.92;72.13;100856.75;5274900;28;20057;-74
2023/01/01 03:30:50;;;;;;;6.97;2.35;;;;;;;15.78;72.14;100850.28;5273404;28;20024;-74
2023/01/01 03:33:37;;;;;;;8.02;2.10;;;;;;;15.88;72.54;100850.13;5276837;28;20036;-74
2023/01/01 03:36:11;;;;;;;9.75;2.00;;;;;;;15.81;71.75;100839.38;5275906;28;20032;-74
2023/01/01 03:38:48;;;;;;;7.43;2.15;;;;;;;15.88;72.60;100862.53;5276378;28;20024;-74
2023/01/01 03:41:46;;;;;;;9.18;2.38;;;;;;;15.96;73.17;100862.53;5276941;28;20028;-75
2023/01/01 03:44:29;;;;;;;5.60;1.92;;;;;;;15.96;72.36;100867.81;5273643;28;20098;-74
2023/01/01 03:47:02;;;;;;;5.00;1.75;;;;;;;15.81;72.59;100860.53;5276123;28;20078;-75
2023/01/01 03:49:34;;;;;;;5.40;1.67;;;;;;;15.76;73.49;100878.69;5274487;28;20106;-74
2023/01/01 03:52:27;;;;;;;6.10;1.83;;;;;;;15.89;73.00;100885.31;5275721;28;20496;-75
2023/01/01 03:55:09;;;;;;;7.13;2.25;;;;;;;15.77;73.61;100861.84;5277816;28;20473;-74
2023/01/01 03:57:54;;;;;;;6.40;2.28;;;;;;;15.86;73.28;100877.69;5251666;28;20081;-74
2023/01/01 04:00:36;;;;;;;7.50;2.25;;;;;;;15.86;73.62;100877.69;5274368;28;20052;-75
2023/01/01 04:03:18;;;;;;;8.95;2.88;;;;;;;15.71;73.38;100875.69;5269639;28;20387;-74
2023/01/01 04:05:49;;;;;;;5.57;2.03;;;;;;;15.71;74.48;100890.72;5276698;28;20062;-75
2023/01/01 04:08:21;;;;;;;4.35;1.90;;;;;;;15.75;74.23;100898.16;5274460;28;20055;-75
2023/01/01 04:10:58;;;;;;;5.50;2.03;;;;;;;15.78;74.72;100874.06;5276665;28;20562;-74
2023/01/01 04:13:29;;;;;;;7.90;1.90;;;;;;;15.68;74.81;100897.16;5274115;28;20025;-74
2023/01/01 04:16:00;;;;;;;6.95;2.10;;;;;;;15.65;76.03;100897.47;5276175;28;20470;-74
2023/01/01 04:18:32;;;;;;;7.00;2.08;;;;;;;15.72;75.44;100895.00;5272110;28;20021;-74
2023/01/01 04:21:03;;;;;;;12.70;2.33;;;;;;;15.74;74.97;100895.69;5258118;28;20405;-75
2023/01/01 04:23:34;;;;;;;6.88;2.10;;;;;;;15.70;75.62;100900.47;5276476;28;20473;-74
2023/01/01 04:26:11;;;;;;;6.35;1.73;;;;;;;15.80;75.71;100895.88;5273281;28;20089;-75
2023/01/01 04:28:43;;;;;;;6.07;1.70;;;;;;;15.65;76.36;100889.56;5275429;28;20035;-74
2023/01/01 04:31:14;;;;;;;5.45;1.80;;;;;;;15.72;76.28;100893.22;5275478;28;20477;-75
2023/01/01 04:33:45;;;;;;;7.53;1.85;;;;;;;15.72;76.07;100892.34;5274432;28;20028;-74
2023/01/01 04:36:17;;;;;;;7.15;2.25;;;;;;;15.66;76.55;100898.31;5274575;28;20493;-74
2023/01/01 04:38:48;;;;;;;7.13;1.95;;;;;;;15.69;76.71;100905.91;5274069;28;20618;-75
2023/01/01 04:41:19;;;;;;;4.88;1.70;;;;;;;15.64;78.01;100905.53;5276190;28;20119;-74
2023/01/01 04:43:51;;;;;;;6.15;2.00;;;;;;;15.62;78.67;100912.78;5275697;28;20431;-74
2023/01/01 04:46:22;;;;;;;8.27;2.20;;;;;;;15.63;78.03;100915.25;5274949;28;20479;-75
2023/01/01 04:48:54;;;;;;;7.93;2.30;;;;;;;15.48;79.24;100914.22;5274075;28;20102;-74
2023/01/01 04:51:25;;;;;;;6.00;1.83;;;;;;;15.56;78.64;100922.16;5274522;28;20025;-75
2023/01/01 04:53:58;;;;;;;5.78;1.80;;;;;;;15.56;79.91;100915.06;5276021;28;20021;-75
2023/01/01 04:56:30;;;;;;;8.18;2.20;;;;;;;15.53;79.65;100928.63;5276474;28;20033;-74
2023/01/01 04:59:01;;;;;;;6.00;2.03;;;;;;;15.54;80.37;100929.44;5273104;28;20381;-74
2023/01/01 05:01:32;;;;;;;4.78;2.05;;;;;;;15.46;80.19;100924.13;5275022;28;20028;-75
2023/01/01 05:04:04;;;;;;;6.80;2.20;;;;;;;15.57;79.84;100935.22;5274952;28;20039;-74
2023/01/01 05:06:36;;;;;;;7.05;1.88;;;;;;;15.39;82.89;100938.97;5256083;28;20110;-75
2023/01/01 05:09:09;;;;;;;9.47;2.17;;;;;;;15.37;82.48;100956.75;5269911;28;20106;-74
2023/01/01 05:11:40;;;;;;;;;;;;;;;15.86;80.16;100962.25;5269706;28;20041;-75
2023/01/01 05:14:12;;;;;;;6.15;2.08;;;;;;;15.29;82.66;100942.53;5273518;28;19916;-75
2023/01/01 05:16:43;;;;;;;6.68;1.67;;;;;;;15.30;83.02;100957.41;5269870;28;20516;-75
2023/01/01 05:19:14;;;;;;;7.75;1.90;;;;;;;15.33;83.03;100956.25;5272737;28;20046;-74
2023/01/01 05:21:45;;;;;;;7.00;2.08;;;;;;;15.31;83.39;100960.88;5274588;28;20032;-75
2023/01/01 05:24:17;;;;;;;5.18;2.00;;;;;;;15.37;82.85;100988.44;5274585;28;20024;-74
2023/01/01 05:26:48;;;;;;;6.15;1.80;;;;;;;15.33;83.17;100985.28;5271478;28;20051;-74
2023/01/01 05:29:21;;;;;;;6.35;1.85;;;;;;;15.30;83.95;101014.63;5269534;28;20025;-75
2023/01/01 05:31:52;;;;;;;5.63;2.03;;;;;;;15.31;84.54;101005.75;5274808;28;20020;-74
2023/01/01 05:34:24;;;;;;;5.22;1.80;;;;;;;15.29;84.87;101007.69;5274586;28;20029;-75
2023/01/01 05:36:55;;;;;;;7.40;2.10;;;;;;;15.28;85.24;101011.34;5274698;28;20043;-75
2023/01/01 05:39:26;;;;;;;5.68;2.05;;;;;;;15.29;84.73;101023.53;5274037;28;20036;-73
2023/01/01 05:41:58;;;;;;;5.88;2.15;;;;;;;15.25;86.20;101015.09;5275179;28;20047;-74
2023/01/01 05:44:29;;;;;;;6.15;2.55;;;;;;;15.27;85.82;101009.69;5253120;28;20027;-74
2023/01/01 05:47:00;;;;;;;8.25;2.58;;;;;;;15.23;85.78;101024.19;5273985;28;20024;-75
2023/01/01 05:49:31;;;;;;;8.38;2.13;;;;;;;15.23;86.31;101024.19;5274937;28;20541;-75
2023/01/01 05:52:03;;;;;;;6.07;1.85;;;;;;;15.21;86.36;101021.69;5272346;28;20024;-74
2023/01/01 05:54:34;;;;;;;9.15;2.45;;;;;;;15.16;86.76;101023.16;5271994;28;20059;-74
2023/01/01 05:57:05;;;;;;;6.35;2.13;;;;;;;15.21;86.67;101037.50;5270519;28;20493;-74
2023/01/01 05:59:37;;;;;;;6.45;2.20;;;;;;;15.23;86.98;101048.75;5273875;28;20032;-75
2023/01/01 06:02:08;;;;;;;8.05;2.13;;;;;;;15.21;87.93;101048.06;5268923;28;20539;-74
2023/01/01 06:04:39;;;;;;;8.30;2.55;;;;;;;15.12;87.70;101046.38;5275864;28;20036;-74
2023/01/01 06:07:10;;;;;;;9.23;1.85;;;;;;;15.18;88.24;101048.38;5274611;28;20031;-75
2023/01/01 06:09:42;;;;;;;5.32;1.95;;;;;;;15.15;88.17;101050.50;5271926;28;20037;-74
2023/01/01 06:12:13;;;;;;;7.97;2.00;;;;;;;15.17;87.81;101051.19;5269696;28;20032;-75
2023/01/01 06:14:44;;;;;;;8.13;1.98;;;;;;;15.17;88.05;101062.56;5274039;28;20027;-73
2023/01/01 06:17:15;;;;;;;8.32;2.40;;;;;;;15.13;88.27;101066.50;5274738;28;20052;-75
2023/01/01 06:19:47;;;;;;;7.75;2.22;;;;;;;15.12;89.16;101080.69;5272808;28;20017;-74
2023/01/01 06:22:18;;;;;;;6.05;2.30;;;;;;;15.03;90.61;101071.84;5273693;28;20024;-74
2023/01/01 06:24:50;;;;;;;7.43;2.17;;;;;;;15.09;89.98;101091.53;5273981;28;20028;-74
2023/01/01 06:27:21;;;;;;;5.38;2.28;;;;;;;15.05;94.03;101116.56;5272918;28;20024;-74
2023/01/01 06:29:52;;;;;;;6.43;2.15;;;;;;;14.69;100.00;101135.03;5270416;28;20025;-74
2023/01/01 06:32:23;;;;;;;5.35;1.95;;;;;;;14.44;100.00;101128.66;5272013;28;20028;-75
2023/01/01 06:34:55;;;;;;;7.65;2.22;;;;;;;14.34;100.00;101146.34;5274116;28;20484;-74
2023/01/01 06:37:27;;;;;;;6.38;2.00;;;;;;;14.08;100.00;101143.53;5272426;28;20020;-74
2023/01/01 06:39:58;;;;;;;7.95;2.33;;;;;;;14.01;100.00;101145.91;5278229;28;20564;-74
2023/01/01 06:42:29;;;;;;;5.93;2.47;;;;;;;13.92;100.00;101153.88;5276120;28;20023;-74
2023/01/01 06:45:01;;;;;;;7.63;2.40;;;;;;;13.85;100.00;101149.19;5274691;28;20070;-74
2023/01/01 06:47:34;;;;;;;8.35;3.08;;;;;;;13.78;100.00;101161.25;5258522;28;20048;-74
2023/01/01 06:50:05;;;;;;;;;;;;;;;14.23;100.00;101162.34;5278475;28;20363;-74
2023/01/01 06:52:36;;;;;;;7.82;2.50;;;;;;;13.61;100.00;101178.63;5277591;28;19966;-74
2023/01/01 06:55:08;;;;;;;9.18;2.78;;;;;;;13.54;100.00;101188.06;5275500;28;20051;-74
2023/01/01 06:57:39;;;;;;;9.65;2.38;;;;;;;13.43;100.00;101185.59;5276940;28;20283;-75
2023/01/01 07:00:11;;;;;;;6.20;2.13;;;;;;;13.39;100.00;101179.75;5274119;28;20020;-75
2023/01/01 07:02:42;;;;;;;7.93;2.30;;;;;;;13.32;100.00;101188.34;5274725;28;20032;-74
2023/01/01 07:05:14;;;;;;;7.05;2.35;;;;;;;13.25;100.00;101193.34;5277127;28;20104;-76
2023/01/01 07:07:45;;;;;;;7.50;2.83;;;;;;;13.20;100.00;101192.06;5277200;28;20016;-74
2023/01/01 07:10:16;;;;;;;7.22;2.58;;;;;;;13.11;100.00;101185.84;5276069;28;20044;-74
2023/01/01 07:12:47;;;;;;;6.22;2.10;;;;;;;13.11;100.00;101199.00;5275917;28;20457;-74
2023/01/01 07:15:19;;;;;;;9.05;2.50;;;;;;;13.12;100.00;101211.19;5276519;28;20393;-74
2023/01/01 07:17:50;;;;;;;4.63;2.05;;;;;;;13.08;100.00;101205.38;5275021;28;20127;-73
2023/01/01 07:20:21;;;;;;;5.97;1.80;;;;;;;13.04;100.00;101206.59;5273672;28;20033;-75
2023/01/01 07:22:53;;;;;;;9.23;2.00;;;;;;;12.98;100.00;101201.88;5276136;28;20023;-75
2023/01/01 07:25:24;;;;;;;6.35;1.95;;;;;;;12.97;100.00;101205.50;5275790;28;20028;-75
2023/01/01 07:27:55;;;;;;;8.05;1.70;;;;;;;12.98;100.00;101211.59;5275316;28;20063;-74
2023/01/01 07:30:26;;;;;;;5.20;1.55;;;;;;;12.98;100.00;101208.94;5274320;28;20074;-75
2023/01/01 07:32:58;;;;;;;5.82;1.73;;;;;;;12.95;100.00;101222.38;5272810;28;20093;-74
2023/01/01 07:35:29;;;;;;;6.30;1.50;;;;;;;12.89;100.00;101216.69;5273769;28;20116;-75
2023/01/01 07:38:00;;;;;;;4.72;1.52;;;;;;;12.92;100.00;101231.38;5272390;28;20120;-74
2023/01/01 07:40:32;;;;;;;6.22;2.22;;;;;;;12.81;100.00;101232.31;5270862;28;20032;-74
2023/01/01 07:43:03;;;;;;;5.07;1.45;;;;;;;12.82;100.00;101239.25;5277433;28;20025;-75
2023/01/01 07:45:34;;;;;;;8.35;1.50;;;;;;;12.82;100.00;101233.16;5276357;28;20111;-74
2023/01/01 07:48:12;;;;;;;5.57;1.48;;;;;;;12.82;100.00;101246.28;5273123;28;20031;-74
2023/01/01 07:50:43;;;;;;;7.57;1.98;;;;;;;12.75;100.00;101259.13;5273304;28;20025;-75
2023/01/01 07:53:15;;;;;;;5.82;1.70;;;;;;;12.77;100.00;101262.47;5275951;28;20073;-74
2023/01/01 07:55:46;;;;;;;7.85;1.98;;;;;;;12.80;100.00;101264.81;5274643;28;20107;-75
2023/01/01 07:58:17;;;;;;;5.90;1.67;;;;;;;12.76;100.00;101266.06;5276652;28;20210;-75
2023/01/01 08:00:49;;;;;;;6.57;1.40;;;;;;;12.68;100.00;101270.31;5268909;28;20123;-76
2023/01/01 08:03:20;;;;;;;6.70;1.90;;;;;;;12.68;100.00;101284.28;5268893;28;20036;-75
2023/01/01 08:05:51;;;;;;;7.50;1.65;;;;;;;12.64;100.00;101309.19;5273915;28;20035;-75
2023/01/01 08:08:22;;;;;;;8.88;1.70;;;;;;;12.63;100.00;101318.88;5276268;28;20031;-75
2023/01/01 08:10:59;;;;;;;8.55;1.88;;;;;;;12.74;100.00;101312.69;5273904;28;20398;-74
2023/01/01 08:13:30;;;;;;;6.57;2.08;;;;;;;12.61;100.00;101304.19;5273348;28;20016;-75
2023/01/01 08:16:02;;;;;;;5.10;1.60;;;;;;;12.59;100.00;101320.09;5272862;28;20055;-75
2023/01/01 08:18:33;;;;;;;5.47;1.67;;;;;;;12.58;100.00;101309.72;5274450;28;20046;-75
2023/01/01 08:21:04;;;;;;;6.03;1.80;;;;;;;12.58;100.00;101304.47;5276895;28;20463;-75
2023/01/01 08:23:36;;;;;;;5.88;1.73;;;;;;;12.60;100.00;101305.16;5274482;28;20029;-75
2023/01/01 08:26:15;;;;;;;7.15;2.15;;;;;;;12.75;100.00;101313.53;5273505;28;20031;-76
2023/01/01 08:28:46;;;;;;;7.97;2.30;;;;;;;12.60;100.00;101311.25;5274943;28;20069;-75
2023/01/01 08:31:17;;;;;;;8.75;2.13;;;;;;;12.58;100.00;101320.25;5275118;28;20024;-75
2023/01/01 08:33:48;;;;;;;6.78;2.00;;;;;;;12.64;100.00;101322.31;5272661;28;20025;-75
2023/01/01 08:36:20;;;;;;;5.90;2.10;;;;;;;12.76;100.00;101317.81;5272689;28;20101;-74
2023/01/01 08:38:51;;;;;;;6.75;2.33;;;;;;;12.75;100.00;101318.78;5269487;28;20029;-76
2023/01/01 08:41:22;;;;;;;8.40;2.40;;;;;;;12.73;100.00;101337.34;5269514;28;20039;-75
2023/01/01 08:43:54;;;;;;;9.07;2.00;;;;;;;12.64;100.00;101356.50;5275091;28;20042;-75
2023/01/01 08:46:25;;;;;;;10.07;2.20;;;;;;;12.57;100.00;101350.09;5274193;28;20032;-74
2023/01/01 08:48:56;;;;;;;6.57;2.17;;;;;;;12.52;100.00;101337.34;5273799;28;20044;-74
2023/01/01 08:51:27;;;;;;;5.85;2.22;;;;;;;12.50;100.00;101334.03;5271287;28;20032;-75
2023/01/01 08:53:59;;;;;;;6.15;2.17;;;;;;;12.48;100.00;101346.47;5274654;28;20025;-74
2023/01/01 08:56:30;;;;;;;8.63;2.50;;;;;;;12.51;100.00;101366.41;5274231;28;20516;-75
2023/01/01 08:59:01;;;;;;;7.40;1.83;;;;;;;12.57;100.00;101361.44;5273468;28;20043;-74
2023/01/01 09:01:33;;;;;;;6.80;1.95;;;;;;;12.52;100.00;101358.38;5271432;28;20111;-74
2023/01/01 09:04:06;;;;;;;11.35;2.25;;;;;;;12.56;100.00;101343.19;5272631;28;20582;-74
2023/01/01 09:06:38;;;;;;;6.30;1.98;;;;;;;12.58;100.00;101333.38;5274833;28;20433;-76
2023/01/01 09:09:09;;;;;;;8.52;2.60;;;;;;;12.62;100.00;101345.31;5271448;28;20036;-75
2023/01/01 09:11:49;;;;;;;7.80;1.88;;;;;;;12.76;100.00;101354.63;5272639;28;20036;-76
2023/01/01 09:14:21;;;;;;;5.22;2.05;;;;;;;12.59;100.00;101356.06;5274451;28;20020;-75
2023/01/01 09:16:53;;;;;;;8.67;2.37;;;;;;;12.63;100.00;101362.72;5273943;28;20028;-74
2023/01/01 09:19:24;;;;;;;6.47;2.30;;;;;;;12.64;100.00;101369.66;5274698;28;20021;-75
2023/01/01 09:21:55;;;;;;;8.77;2.38;;;;;;;12.64;100.00;101353.88;5274403;28;20396;-75
2023/01/01 09:24:26;;;;;;;9.65;1.85;;;;;;;12.69;100.00;101358.72;5266657;28;20025;-75
2023/01/01 09:26:58;;;;;;;6.45;2.35;;;;;;;12.61;100.00;101347.09;5274314;28;20054;-74
2023/01/01 09:29:29;;;;;;;6.43;2.50;;;;;;;12.57;100.00;101356.19;5269029;28;20086;-76
2023/01/01 09:32:00;;;;;;;7.90;2.40;;;;;;;12.64;100.00;101367.03;5274524;28;20103;-75
2023/01/01 09:34:32;;;;;;;6.38;2.30;;;;;;;12.62;100.00;101380.31;5271179;28;20028;-75
2023/01/01 09:37:03;;;;;;;6.95;2.53;;;;;;;12.57;100.00;101368.50;5273740;28;20100;-75
2023/01/01 09:39:34;;;;;;;6.28;2.05;;;;;;;12.58;100.00;101380.69;5274976;28;20024;-75
2023/01/01 09:42:25;;;;;;;7.03;2.38;;;;;;;12.71;100.00;101381.31;5271618;28;20017;-76
2023/01/01 09:45:28;;;;;;;9.93;2.72;;;;;;;12.88;100.00;101367.56;5270451;28;20059;-74
2023/01/01 09:48:05;;;;;;;7.30;2.75;;;;;;;12.66;100.00;101378.25;5275214;28;20070;-74
2023/01/01 09:50:45;;;;;;;7.20;2.38;;;;;;;12.68;100.00;101376.31;5269715;28;20067;-75
2023/01/01 09:53:27;;;;;;;6.97;2.47;;;;;;;12.59;100.00;101385.00;5270701;28;20643;-74
2023/01/01 09:56:00;;;;;;;8.40;2.75;;;;;;;12.50;100.00;101383.97;5272688;28;20055;-74
2023/01/01 09:58:37;;;;;;;5.55;2.28;;;;;;;12.62;100.00;101379.47;5274559;28;20024;-75
2023/01/01 10:01:09;;;;;;;7.03;2.80;;;;;;;12.50;100.00;101369.97;5271609;28;20474;-74
2023/01/01 10:03:56;;;;;;;8.05;2.88;;;;;;;12.68;100.00;101363.16;5271025;28;20036;-74
2023/01/01 10:06:30;;;;;;;8.73;2.50;;;;;;;12.52;100.00;101368.91;5271682;28;20090;-74
2023/01/01 10:09:20;;;;;;;6.90;3.05;;;;;;;12.67;100.00;101366.75;5273427;28;20071;-76
2023/01/01 10:12:06;;;;;;;9.40;3.22;;;;;;;12.60;100.00;101373.50;5272576;28;20036;-74
2023/01/01 10:14:45;;;;;;;6.75;2.92;;;;;;;12.48;100.00;101367.50;5271706;28;20054;-74
2023/01/01 10:17:33;;;;;;;9.77;3.35;;;;;;;12.59;100.00;101366.59;5273699;28;20036;-74
2023/01/01 10:20:34;;;;;;;6.15;3.15;;;;;;;12.65;100.00;101374.78;5271744;28;20382;-74
2023/01/01 10:23:13;;;;;;;8.75;3.00;;;;;;;12.64;100.00;101372.28;5277290;28;20042;-75
2023/01/01 10:25:44;;;;;;;9.02;3.22;;;;;;;12.55;100.00;101370.44;5278108;28;20028;-74
2023/01/01 10:28:29;;;;;;;9.93;3.35;;;;;;;12.65;100.00;101374.78;5272373;28;20032;-74
2023/01/01 10:31:17;;;;;;;7.68;3.25;;;;;;;12.77;100.00;101378.16;5276264;28;20035;-74
2023/01/01 10:33:48;;;;;;;9.65;3.05;;;;;;;12.59;100.00;101385.81;5276912;28;20059;-75
2023/01/01 10:36:20;;;;;;;9.70;3.50;;;;;;;12.64;100.00;101375.72;5274398;28;20029;-75
2023/01/01 10:38:51;;;;;;;9.63;2.97;;;;;;;12.64;100.00;101374.91;5274736;28;20031;-75
2023/01/01 10:41:22;;;;;;;11.27;3.10;;;;;;;12.74;100.00;101372.34;5277090;28;20060;-76
2023/01/01 10:43:54;;;;;;;9.55;3.22;;;;;;;12.73;100.00;101371.50;5272478;28;20067;-74
2023/01/01 10:46:26;;;;;;;12.85;3.03;;;;;;;12.76;100.00;101373.84;5271893;28;20129;-73
2023/01/01 10:49:07;;;;;;;9.18;2.90;;;;;;;12.91;100.00;101377.78;5277039;28;20115;-73
2023/01/01 10:51:44;;;;;;;9.82;3.35;;;;;;;12.96;100.00;101379.22;5270898;28;20060;-73
2023/01/01 10:54:36;;;;;;;5.53;2.78;;;;;;;13.09;100.00;101371.91;5276183;28;20082;-72
2023/01/01 10:57:25;;;;;;;11.50;3.28;;;;;;;13.27;100.00;101364.25;5272640;28;20554;-74
2023/01/01 11:00:23;;;;;;;8.48;3.17;;;;;;;13.37;100.00;101368.56;5274941;28;20238;-72
2023/01/01 11:03:19;;;;;;;10.82;3.25;;;;;;;13.47;100.00;101375.66;5268671;28;20058;-72
2023/01/01 11:06:21;;;;;;;8.98;2.75;;;;;;;13.42;100.00;101372.59;5274256;28;20035;-73
2023/01/01 11:08:55;;;;;;;10.05;3.22;;;;;;;13.37;100.00;101381.75;5273864;28;20041;-73
2023/01/01 11:11:31;;;;;;;11.07;2.85;;;;;;;13.42;100.00;101381.31;5275255;28;20139;-72
2023/01/01 11:14:07;;;;;;;9.93;2.70;;;;;;;13.45;100.00;101388.94;5275419;28;20033;-73
2023/01/01 11:16:39;;;;;;;11.07;3.40;;;;;;;13.46;100.00;101384.53;5269719;28;20625;-72
2023/01/01 11:19:21;;;;;;;10.75;2.90;;;;;;;13.64;100.00;101396.06;5267303;28;20020;-73
2023/01/01 11:21:52;;;;;;;7.53;2.80;;;;;;;13.61;100.00;101402.41;5273674;28;20027;-73
2023/01/01 11:24:26;;;;;;;10.68;2.88;;;;;;;13.71;100.00;101412.94;5273054;28;20469;-73
2023/01/01 11:27:19;;;;;;;8.65;3.28;;;;;;;13.87;100.00;101409.78;5275801;28;20025;-73
2023/01/01 11:30:11;;;;;;;11.50;2.97;;;;;;;13.73;100.00;101405.75;5273507;28;20032;-75
2023/01/01 11:32:42;;;;;;;9.95;2.70;;;;;;;13.82;100.00;101401.47;5272070;28;20036;-72
2023/01/01 11:35:18;;;;;;;9.68;3.53;;;;;;;13.94;100.00;101391.63;5276165;28;20031;-73
2023/01/01 11:37:53;;;;;;;9.30;2.90;;;;;;;13.94;100.00;101386.34;5274295;28;20473;-75
2023/01/01 11:40:35;;;;;;;7.70;2.13;;;;;;;14.01;100.00;101393.56;5273594;28;20230;-75
2023/01/01 11:43:07;;;;;;;11.68;2.75;;;;;;;13.95;100.00;101401.22;5271296;28;20020;-73
2023/01/01 11:45:41;;;;;;;9.55;2.40;;;;;;;14.03;100.00;101380.25;5275134;28;20382;-73
2023/01/01 11:48:25;;;;;;;10.77;2.83;;;;;;;14.17;100.00;101373.72;5271790;28;20481;-73
2023/01/01 11:51:01;;;;;;;10.00;2.92;;;;;;;14.06;100.00;101382.63;5273907;28;20103;-73
2023/01/01 11:53:41;;;;;;;10.63;3.10;;;;;;;14.15;100.00;101392.31;5274367;28;20021;-74
2023/01/01 11:56:19;;;;;;;13.52;3.72;;;;;;;14.15;100.00;101389.69;5273637;28;20058;-75
2023/01/01 11:58:53;;;;;;;7.13;2.53;;;;;;;14.17;100.00;101387.75;5270062;28;20430;-72
2023/01/01 12:01:42;;;;;;;10.98;4.55;;;;;;;14.26;100.00;101393.97;5268721;28;20032;-73